Time;durP1;ratioP1;P1;durP2;ratioP2;P2;SDS_P1;SDS_P2;PMS_P1;PMS_P2;Temp;Humidity;BMP_temperature;BMP_pressure;BME280_temperature;BME280_humidity;BME280_pressure;Samples;Min_cycle;Max_cycle;Signal;HPM_P1;HPM_P2
2022/09/20 00:00:30;;;;;;;;;;;;;;;;;;5005534;28;19972;-79
2022/09/20 00:02:57;;;;;;;;;;;;;;;;;;5008478;28;19925;-78
2022/09/20 00:05:24;;;;;;;;;;;;;;;;;;5003279;28;19929;-78
2022/09/20 00:07:51;;;;;;;;;;;;;;;;;;5005919;28;19929;-78
2022/09/20 00:10:18;;;;;;;;;;;;;;;;;;5006669;28;19936;-79
2022/09/20 00:12:45;;;;;;;;;;;;;;;;;;5007719;28;19921;-78
2022/09/20 00:15:12;;;;;;;;;;;;;;;;;;5005019;28;19925;-78
2022/09/20 00:17:39;;;;;;;;;;;;;;;;;;5001660;28;19921;-74
2022/09/20 00:20:06;;;;;;;;;;;;;;;;;;5001143;28;20426;-79
2022/09/20 00:22:33;;;;;;;;;;;;;;;;;;5005573;28;19936;-78
2022/09/20 00:25:00;;;;;;;;;;;;;;;;;;5008459;28;19920;-78
2022/09/20 00:27:27;;;;;;;;;;;;;;;;;;5004148;28;19925;-77
2022/09/20 00:29:54;;;;;;;;;;;;;;;;;;5005538;28;19929;-78
2022/09/20 00:32:21;;;;;;;;;;;;;;;;;;5004961;28;19931;-79
2022/09/20 00:37:33;;;;;;;;;;;;;;;;;;5004400;28;19917;-77
2022/09/20 00:40:00;;;;;;;;;;;;;;;;;;5008349;28;19928;-77
2022/09/20 00:42:27;;;;;;;;;;;;;;;;;;5007022;28;20394;-78
2022/09/20 00:44:54;;;;;;;;;;;;;;;;;;5006758;28;20008;-77
2022/09/20 00:47:21;;;;;;;;;;;;;;;;;;5006386;28;19929;-79
2022/09/20 00:49:48;;;;;;;;;;;;;;;;;;5009937;28;19925;-78
2022/09/20 00:52:15;;;;;;;;;;;;;;;;;;5002576;28;19932;-78
2022/09/20 00:54:42;;;;;;;;;;;;;;;;;;5004318;28;20537;-75
2022/09/20 00:57:09;;;;;;;;;;;;;;;;;;5016195;28;19921;-78
2022/09/20 00:59:36;;;;;;;;;;;;;;;;;;5008895;28;19928;-79
2022/09/20 01:02:04;;;;;;;;;;;;;;;;;;5005034;28;19925;-78
2022/09/20 01:04:31;;;;;;;;;;;;;;;;;;5009539;28;19925;-77
2022/09/20 01:06:58;;;;;;;;;;;;;;;;;;5012933;28;19925;-78
2022/09/20 01:09:25;;;;;;;;;;;;;;;;;;5008449;28;20410;-79
2022/09/20 01:11:52;;;;;;;;;;;;;;;;;;5008804;28;20020;-77
2022/09/20 01:14:21;;;;;;;;;;;;;;;;;;5003820;28;19936;-78
2022/09/20 01:16:48;;;;;;;;;;;;;;;;;;5009027;28;19998;-75
2022/09/20 01:19:15;;;;;;;;;;;;;;;;;;5009641;28;19921;-77
2022/09/20 01:21:45;;;;;;;;;;;;;;;;;;5007910;28;19925;-77
2022/09/20 01:24:12;;;;;;;;;;;;;;;;;;5009911;28;19982;-77
2022/09/20 01:26:39;;;;;;;;;;;;;;;;;;5009946;28;19982;-78
2022/09/20 01:29:06;;;;;;;;;;;;;;;;;;5009752;28;19928;-78
2022/09/20 01:31:33;;;;;;;;;;;;;;;;;;5008224;28;19931;-78
2022/09/20 01:34:00;;;;;;;;;;;;;;;;;;5006544;28;19921;-79
2022/09/20 01:36:27;;;;;;;;;;;;;;;;;;5007804;28;20372;-77
2022/09/20 01:38:54;;;;;;;;;;;;;;;;;;5008048;28;19921;-80
2022/09/20 01:41:21;;;;;;;;;;;;;;;;;;5010086;28;19921;-78
2022/09/20 01:43:48;;;;;;;;;;;;;;;;;;5007816;28;19932;-77
2022/09/20 01:46:15;;;;;;;;;;;;;;;;;;5014153;28;20028;-78
2022/09/20 01:48:42;;;;;;;;;;;;;;;;;;5011512;28;19924;-77
2022/09/20 01:51:09;;;;;;;;;;;;;;;;;;5005432;28;19921;-78
2022/09/20 01:53:36;;;;;;;;;;;;;;;;;;5010911;28;19936;-77
2022/09/20 01:56:03;;;;;;;;;;;;;;;;;;5012095;28;20352;-78
2022/09/20 01:58:30;;;;;;;;;;;;;;;;;;5008550;28;19921;-78
2022/09/20 02:00:57;;;;;;;;;;;;;;;;;;5010621;28;19944;-77
2022/09/20 02:03:24;;;;;;;;;;;;;;;;;;5009068;28;19925;-76
2022/09/20 02:05:51;;;;;;;;;;;;;;;;;;5028542;28;20405;-77
2022/09/20 02:08:18;;;;;;;;;;;;;;;;;;5003660;28;20012;-77
2022/09/20 02:10:45;;;;;;;;;;;;;;;;;;5010085;28;20367;-78
2022/09/20 02:13:13;;;;;;;;;;;;;;;;;;5007501;28;19947;-78
2022/09/20 02:15:41;;;;;;;;;;;;;;;;;;4999418;28;19925;-78
2022/09/20 02:18:08;;;;;;;;;;;;;;;;;;4999680;28;19925;-78
2022/09/20 02:20:35;;;;;;;;;;;;;;;;;;5027686;28;19928;-79
2022/09/20 02:23:02;;;;;;;;;;;;;;;;;;5001716;28;20291;-77
2022/09/20 02:25:29;;;;;;;;;;;;;;;;;;5008767;28;19925;-78
2022/09/20 02:27:56;;;;;;;;;;;;;;;;;;5009055;28;19936;-78
2022/09/20 02:30:24;;;;;;;;;;;;;;;;;;5011091;28;20272;-78
2022/09/20 02:32:51;;;;;;;;;;;;;;;;;;5020421;28;19960;-78
2022/09/20 02:35:18;;;;;;;;;;;;;;;;;;5006643;28;19933;-77
2022/09/20 02:37:45;;;;;;;;;;;;;;;;;;5005798;28;20284;-78
2022/09/20 02:40:12;;;;;;;;;;;;;;;;;;5001218;28;20363;-78
2022/09/20 02:42:39;;;;;;;;;;;;;;;;;;5008020;28;19921;-78
2022/09/20 02:45:06;;;;;;;;;;;;;;;;;;5004272;28;20354;-78
2022/09/20 02:47:34;;;;;;;;;;;;;;;;;;5008136;28;19951;-77
2022/09/20 02:50:01;;;;;;;;;;;;;;;;;;5007278;28;20012;-79
2022/09/20 02:52:28;;;;;;;;;;;;;;;;;;5000460;28;20631;-78
2022/09/20 02:54:55;;;;;;;;;;;;;;;;;;5003836;28;19928;-78
2022/09/20 02:57:22;;;;;;;;;;;;;;;;;;4999373;28;19932;-78
2022/09/20 02:59:49;;;;;;;;;;;;;;;;;;5009704;28;19929;-75
2022/09/20 03:02:16;;;;;;;;;;;;;;;;;;5008086;28;19933;-79
2022/09/20 03:04:43;;;;;;;;;;;;;;;;;;5005393;28;19921;-78
2022/09/20 03:07:10;;;;;;;;;;;;;;;;;;5000515;28;20352;-78
2022/09/20 03:09:37;;;;;;;;;;;;;;;;;;5004636;28;19983;-76
2022/09/20 03:12:04;;;;;;;;;;;;;;;;;;5005880;28;19932;-74
2022/09/20 03:14:31;;;;;;;;;;;;;;;;;;5001387;28;19925;-78
2022/09/20 03:16:58;;;;;;;;;;;;;;;;;;5002593;28;19933;-77
2022/09/20 03:19:25;;;;;;;;;;;;;;;;;;5005181;28;20373;-78
2022/09/20 03:21:52;;;;;;;;;;;;;;;;;;4999933;28;19929;-78
2022/09/20 03:24:19;;;;;;;;;;;;;;;;;;5005676;28;20372;-79
2022/09/20 03:26:46;;;;;;;;;;;;;;;;;;5003672;28;19929;-78
2022/09/20 03:29:13;;;;;;;;;;;;;;;;;;5005384;28;19925;-78
2022/09/20 03:31:40;;;;;;;;;;;;;;;;;;5003326;28;19921;-76
2022/09/20 03:34:07;;;;;;;;;;;;;;;;;;4997614;28;19929;-78
2022/09/20 03:36:34;;;;;;;;;;;;;;;;;;5003835;28;19921;-77
2022/09/20 03:39:01;;;;;;;;;;;;;;;;;;5004965;28;19921;-79
2022/09/20 03:41:28;;;;;;;;;;;;;;;;;;5004322;28;19933;-78
2022/09/20 03:43:55;;;;;;;;;;;;;;;;;;5005599;28;19921;-77
2022/09/20 03:46:22;;;;;;;;;;;;;;;;;;5004128;28;19929;-77
2022/09/20 03:48:49;;;;;;;;;;;;;;;;;;5003489;28;19936;-77
2022/09/20 03:51:16;;;;;;;;;;;;;;;;;;5003317;28;20384;-77
2022/09/20 03:53:44;;;;;;;;;;;;;;;;;;5000286;28;19925;-78
2022/09/20 03:56:11;;;;;;;;;;;;;;;;;;4999122;28;20283;-74
2022/09/20 03:58:38;;;;;;;;;;;;;;;;;;5000454;28;19929;-78
2022/09/20 04:01:05;;;;;;;;;;;;;;;;;;5001833;28;19936;-77
2022/09/20 04:03:32;;;;;;;;;;;;;;;;;;5002005;28;19987;-75
2022/09/20 04:05:59;;;;;;;;;;;;;;;;;;4998256;28;19925;-78
2022/09/20 04:08:26;;;;;;;;;;;;;;;;;;4992845;28;19921;-77
2022/09/20 04:10:53;;;;;;;;;;;;;;;;;;4998412;28;19929;-78
2022/09/20 04:13:20;;;;;;;;;;;;;;;;;;4998869;28;19928;-77
2022/09/20 04:15:47;;;;;;;;;;;;;;;;;;4997932;28;19930;-78
2022/09/20 04:18:14;;;;;;;;;;;;;;;;;;4997175;28;19933;-77
2022/09/20 04:20:43;;;;;;;;;;;;;;;;;;5001421;28;19933;-77
2022/09/20 04:23:10;;;;;;;;;;;;;;;;;;5001983;28;19928;-78
2022/09/20 04:25:37;;;;;;;;;;;;;;;;;;5005174;28;20688;-77
2022/09/20 04:28:04;;;;;;;;;;;;;;;;;;5004699;28;19925;-77
2022/09/20 04:30:31;;;;;;;;;;;;;;;;;;5004207;28;19941;-79
2022/09/20 04:32:58;;;;;;;;;;;;;;;;;;5004002;28;19940;-79
2022/09/20 04:38:10;;;;;;;;;;;;;;;;;;5003667;28;20064;-79
2022/09/20 04:40:37;;;;;;;;;;;;;;;;;;5001392;28;19925;-78
2022/09/20 04:43:04;;;;;;;;;;;;;;;;;;5005224;28;20467;-77
2022/09/20 04:45:31;;;;;;;;;;;;;;;;;;5003829;28;20486;-78
2022/09/20 04:47:58;;;;;;;;;;;;;;;;;;5005036;28;19940;-77
2022/09/20 04:50:25;;;;;;;;;;;;;;;;;;5002556;28;19925;-79
2022/09/20 04:52:52;;;;;;;;;;;;;;;;;;5004764;28;19929;-76
2022/09/20 04:55:19;;;;;;;;;;;;;;;;;;5003379;28;19936;-77
2022/09/20 04:57:46;;;;;;;;;;;;;;;;;;5004265;28;20241;-78
2022/09/20 05:00:13;;;;;;;;;;;;;;;;;;4998171;28;19932;-77
2022/09/20 05:02:40;;;;;;;;;;;;;;;;;;5002564;28;20380;-78
2022/09/20 05:05:07;;;;;;;;;;;;;;;;;;5002133;28;19929;-76
2022/09/20 05:07:34;;;;;;;;;;;;;;;;;;5002169;28;19948;-78
2022/09/20 05:10:02;;;;;;;;;;;;;;;;;;5007638;28;19924;-79
2022/09/20 05:12:29;;;;;;;;;;;;;;;;;;5002151;28;19928;-78
2022/09/20 05:14:56;;;;;;;;;;;;;;;;;;5001850;28;19922;-74
2022/09/20 05:17:24;;;;;;;;;;;;;;;;;;5003710;28;19921;-78
2022/09/20 05:19:54;;;;;;;;;;;;;;;;;;4996560;28;19933;-78
2022/09/20 05:22:21;;;;;;;;;;;;;;;;;;5018781;28;20299;-78
2022/09/20 05:24:51;;;;;;;;;;;;;;;;;;5005414;28;19925;-77
2022/09/20 05:27:18;;;;;;;;;;;;;;;;;;5004714;28;20020;-77
2022/09/20 05:29:45;;;;;;;;;;;;;;;;;;5005508;28;19975;-78
2022/09/20 05:32:12;;;;;;;;;;;;;;;;;;5008322;28;19952;-78
2022/09/20 05:34:41;;;;;;;;;;;;;;;;;;5008935;28;19929;-77
2022/09/20 05:37:08;;;;;;;;;;;;;;;;;;5004458;28;20015;-77
2022/09/20 05:39:35;;;;;;;;;;;;;;;;;;5011557;28;20417;-78
2022/09/20 05:42:02;;;;;;;;;;;;;;;;;;5008460;28;19920;-77
2022/09/20 05:44:29;;;;;;;;;;;;;;;;;;5009242;28;19936;-78
2022/09/20 05:46:57;;;;;;;;;;;;;;;;;;5005693;28;20012;-79
2022/09/20 05:49:24;;;;;;;;;;;;;;;;;;5007815;28;19921;-77
2022/09/20 05:51:51;;;;;;;;;;;;;;;;;;5006806;28;19921;-77
2022/09/20 05:54:18;;;;;;;;;;;;;;;;;;5007478;28;19933;-77
2022/09/20 05:56:45;;;;;;;;;;;;;;;;;;5005565;28;20003;-78
2022/09/20 05:59:12;;;;;;;;;;;;;;;;;;5008791;28;20019;-76
2022/09/20 06:01:39;;;;;;;;;;;;;;;;;;5009656;28;19995;-77
2022/09/20 06:04:07;;;;;;;;;;;;;;;;;;5008665;28;20012;-80
2022/09/20 06:06:34;;;;;;;;;;;;;;;;;;5002311;28;20316;-79
2022/09/20 06:09:01;;;;;;;;;;;;;;;;;;5006092;28;19967;-79
2022/09/20 06:11:28;;;;;;;;;;;;;;;;;;5003982;28;19929;-78
2022/09/20 06:13:58;;;;;;;;;;;;;;;;;;5006284;28;19929;-80
2022/09/20 06:16:25;;;;;;;;;;;;;;;;;;5004808;28;19937;-79
2022/09/20 06:18:52;;;;;;;;;;;;;;;;;;5009776;28;19956;-79
2022/09/20 06:21:19;;;;;;;;;;;;;;;;;;5006893;28;20835;-80
2022/09/20 06:23:46;;;;;;;;;;;;;;;;;;4997530;28;19952;-81
2022/09/20 06:26:13;;;;;;;;;;;;;;;;;;5000557;28;19925;-81
2022/09/20 06:28:40;;;;;;;;;;;;;;;;;;5009421;28;19931;-79
2022/09/20 06:31:09;;;;;;;;;;;;;;;;;;5000246;28;20458;-78
2022/09/20 06:33:36;;;;;;;;;;;;;;;;;;5005642;28;20364;-78
2022/09/20 06:41:25;;;;;;;;;;;;;;;;;;4997444;28;19936;-80
2022/09/20 06:41:35;;;;;;;;;;;;;;;;;;5003971;28;19928;-79
2022/09/20 06:44:02;;;;;;;;;;;;;;;;;;4995125;28;19922;-79
2022/09/20 06:46:29;;;;;;;;;;;;;;;;;;4999986;28;19925;-76
2022/09/20 06:48:56;;;;;;;;;;;;;;;;;;5008574;28;19933;-78
2022/09/20 06:51:25;;;;;;;;;;;;;;;;;;5008107;28;20308;-81
2022/09/20 06:53:52;;;;;;;;;;;;;;;;;;5008283;28;19932;-77
2022/09/20 06:56:19;;;;;;;;;;;;;;;;;;5007052;28;19932;-79
2022/09/20 06:58:46;;;;;;;;;;;;;;;;;;5003348;28;19932;-81
2022/09/20 07:01:13;;;;;;;;;;;;;;;;;;5005157;28;19929;-79
2022/09/20 07:03:40;;;;;;;;;;;;;;;;;;5005286;28;19924;-80
2022/09/20 07:06:08;;;;;;;;;;;;;;;;;;5006148;28;19921;-80
2022/09/20 07:08:35;;;;;;;;;;;;;;;;;;5005591;28;20400;-79
2022/09/20 07:11:02;;;;;;;;;;;;;;;;;;4999696;28;19928;-79
2022/09/20 07:13:29;;;;;;;;;;;;;;;;;;4998914;28;19929;-80
2022/09/20 07:15:56;;;;;;;;;;;;;;;;;;4998566;28;19921;-80
2022/09/20 07:18:23;;;;;;;;;;;;;;;;;;4999682;28;20546;-79
2022/09/20 07:20:50;;;;;;;;;;;;;;;;;;5001762;28;19924;-80
2022/09/20 07:23:18;;;;;;;;;;;;;;;;;;4999943;28;19928;-79
2022/09/20 07:25:45;;;;;;;;;;;;;;;;;;4997683;28;20610;-79
2022/09/20 07:28:12;;;;;;;;;;;;;;;;;;5001061;28;19921;-79
2022/09/20 07:30:39;;;;;;;;;;;;;;;;;;4995563;28;19936;-79
2022/09/20 07:33:06;;;;;;;;;;;;;;;;;;4994584;28;20384;-78
2022/09/20 07:35:33;;;;;;;;;;;;;;;;;;4998582;28;19921;-79
2022/09/20 07:38:00;;;;;;;;;;;;;;;;;;4999298;28;19933;-80
2022/09/20 07:40:27;;;;;;;;;;;;;;;;;;5006053;28;19952;-80
2022/09/20 07:42:54;;;;;;;;;;;;;;;;;;4999076;28;19921;-78
2022/09/20 07:45:22;;;;;;;;;;;;;;;;;;5001941;28;19928;-76
2022/09/20 07:47:51;;;;;;;;;;;;;;;;;;5002073;28;19960;-78
2022/09/20 07:50:18;;;;;;;;;;;;;;;;;;5006861;28;20431;-78
2022/09/20 07:52:45;;;;;;;;;;;;;;;;;;5000527;28;19935;-76
2022/09/20 07:55:12;;;;;;;;;;;;;;;;;;5001228;28;20023;-76
2022/09/20 07:57:39;;;;;;;;;;;;;;;;;;5006835;28;19952;-75
2022/09/20 08:00:06;;;;;;;;;;;;;;;;;;5007646;28;19921;-77
2022/09/20 08:02:33;;;;;;;;;;;;;;;;;;5003779;28;19932;-74
2022/09/20 08:05:00;;;;;;;;;;;;;;;;;;5007071;28;19925;-78
2022/09/20 08:07:27;;;;;;;;;;;;;;;;;;5006211;28;19956;-77
2022/09/20 08:09:54;;;;;;;;;;;;;;;;;;5005338;28;19927;-77
2022/09/20 08:12:21;;;;;;;;;;;;;;;;;;5004990;28;19927;-78
2022/09/20 08:14:48;;;;;;;;;;;;;;;;;;5003061;28;19929;-77
2022/09/20 08:17:16;;;;;;;;;;;;;;;;;;4999186;28;19931;-78
2022/09/20 08:19:43;;;;;;;;;;;;;;;;;;5009540;28;19964;-78
2022/09/20 08:22:11;;;;;;;;;;;;;;;;;;5002843;28;20000;-77
2022/09/20 08:24:38;;;;;;;;;;;;;;;;;;5007935;28;19931;-77
2022/09/20 08:27:05;;;;;;;;;;;;;;;;;;5008972;28;19925;-79
2022/09/20 08:29:32;;;;;;;;;;;;;;;;;;5005084;28;19936;-77
2022/09/20 08:32:01;;;;;;;;;;;;;;;;;;5005859;28;20039;-79
2022/09/20 08:34:28;;;;;;;;;;;;;;;;;;5005418;28;19928;-78
2022/09/20 08:36:55;;;;;;;;;;;;;;;;;;5007112;28;20360;-78
2022/09/20 08:39:22;;;;;;;;;;;;;;;;;;5004394;28;19975;-77
2022/09/20 08:41:49;;;;;;;;;;;;;;;;;;5007832;28;20346;-76
2022/09/20 08:44:16;;;;;;;;;;;;;;;;;;5005617;28;19932;-77
2022/09/20 08:46:43;;;;;;;;;;;;;;;;;;5009367;28;19928;-78
2022/09/20 08:49:10;;;;;;;;;;;;;;;;;;5004422;28;19925;-78
2022/09/20 08:51:37;;;;;;;;;;;;;;;;;;5007656;28;19925;-78
2022/09/20 08:54:04;;;;;;;;;;;;;;;;;;5010263;28;20411;-78
2022/09/20 08:56:32;;;;;;;;;;;;;;;;;;5001822;28;19925;-78
2022/09/20 08:58:59;;;;;;;;;;;;;;;;;;5000554;28;19984;-74
2022/09/20 09:01:26;;;;;;;;;;;;;;;;;;5005572;28;19967;-79
2022/09/20 09:03:54;;;;;;;;;;;;;;;;;;5004467;28;19952;-77
2022/09/20 09:06:21;;;;;;;;;;;;;;;;;;5006603;28;20302;-77
2022/09/20 09:08:50;;;;;;;;;;;;;;;;;;5010738;28;19928;-77
2022/09/20 09:11:17;;;;;;;;;;;;;;;;;;5008050;28;19921;-79
2022/09/20 09:13:44;;;;;;;;;;;;;;;;;;5006636;28;20340;-77
2022/09/20 09:16:11;;;;;;;;;;;;;;;;;;5006248;28;19928;-78
2022/09/20 09:18:38;;;;;;;;;;;;;;;;;;5008508;28;19999;-77
2022/09/20 09:21:06;;;;;;;;;;;;;;;;;;5011579;28;19970;-77
2022/09/20 09:23:35;;;;;;;;;;;;;;;;;;5006961;28;20291;-77
2022/09/20 09:26:02;;;;;;;;;;;;;;;;;;5011977;28;20556;-78
2022/09/20 09:28:33;;;;;;;;;;;;;;;;;;5008934;28;19929;-76
2022/09/20 09:31:00;;;;;;;;;;;;;;;;;;5012132;28;19925;-77
2022/09/20 09:33:27;;;;;;;;;;;;;;;;;;5005350;28;19921;-76
2022/09/20 09:35:54;;;;;;;;;;;;;;;;;;5009048;28;20207;-78
2022/09/20 09:38:22;;;;;;;;;;;;;;;;;;5010170;28;19925;-77
2022/09/20 09:40:50;;;;;;;;;;;;;;;;;;5007139;28;19963;-78
2022/09/20 09:43:17;;;;;;;;;;;;;;;;;;5010405;28;19925;-79
2022/09/20 09:45:44;;;;;;;;;;;;;;;;;;5010576;28;19928;-76
2022/09/20 09:48:11;;;;;;;;;;;;;;;;;;5010092;28;19925;-75
2022/09/20 09:50:38;;;;;;;;;;;;;;;;;;5010870;28;20287;-77
2022/09/20 09:53:05;;;;;;;;;;;;;;;;;;5008698;28;19963;-78
2022/09/20 09:55:32;;;;;;;;;;;;;;;;;;5011198;28;20503;-77
2022/09/20 09:57:59;;;;;;;;;;;;;;;;;;5010736;28;19929;-77
2022/09/20 10:00:27;;;;;;;;;;;;;;;;;;5010689;28;19932;-76
2022/09/20 10:02:54;;;;;;;;;;;;;;;;;;5005588;28;19925;-76
2022/09/20 10:05:21;;;;;;;;;;;;;;;;;;5008823;28;19969;-77
2022/09/20 10:07:48;;;;;;;;;;;;;;;;;;5009054;28;20563;-77
2022/09/20 10:10:15;;;;;;;;;;;;;;;;;;5006744;28;20375;-78
2022/09/20 10:12:42;;;;;;;;;;;;;;;;;;5002359;28;19948;-80
2022/09/20 10:15:10;;;;;;;;;;;;;;;;;;5008509;28;20364;-77
2022/09/20 10:17:37;;;;;;;;;;;;;;;;;;5010904;28;19972;-78
2022/09/20 10:20:06;;;;;;;;;;;;;;;;;;5006676;28;19925;-78
2022/09/20 10:22:33;;;;;;;;;;;;;;;;;;5004269;28;19968;-77
2022/09/20 10:25:01;;;;;;;;;;;;;;;;;;5006912;28;19920;-78
2022/09/20 10:27:28;;;;;;;;;;;;;;;;;;5008578;28;20233;-78
2022/09/20 10:29:56;;;;;;;;;;;;;;;;;;5010922;28;19925;-79
2022/09/20 10:32:25;;;;;;;;;;;;;;;;;;5005306;28;19987;-78
2022/09/20 10:34:52;;;;;;;;;;;;;;;;;;5007636;28;19924;-75
2022/09/20 10:37:20;;;;;;;;;;;;;;;;;;5008084;28;19984;-76
2022/09/20 10:39:47;;;;;;;;;;;;;;;;;;5010313;28;19968;-77
2022/09/20 10:44:59;;;;;;;;;;;;;;;;;;5009891;28;19928;-75
2022/09/20 10:47:27;;;;;;;;;;;;;;;;;;5009346;28;19921;-78
2022/09/20 10:49:55;;;;;;;;;;;;;;;;;;5005401;28;19955;-77
2022/09/20 10:52:22;;;;;;;;;;;;;;;;;;5008569;28;19956;-74
2022/09/20 10:54:49;;;;;;;;;;;;;;;;;;5007622;28;19929;-77
2022/09/20 10:57:17;;;;;;;;;;;;;;;;;;5001233;28;19921;-76
2022/09/20 10:59:47;;;;;;;;;;;;;;;;;;5000482;28;19929;-76
2022/09/20 11:02:14;;;;;;;;;;;;;;;;;;5006868;28;19968;-77
2022/09/20 11:04:41;;;;;;;;;;;;;;;;;;5004484;28;19948;-77
2022/09/20 11:07:08;;;;;;;;;;;;;;;;;;5006614;28;19921;-79
2022/09/20 11:09:35;;;;;;;;;;;;;;;;;;5003981;28;19924;-77
2022/09/20 11:12:02;;;;;;;;;;;;;;;;;;5017319;28;19932;-76
2022/09/20 11:14:31;;;;;;;;;;;;;;;;;;5006638;28;19925;-76
2022/09/20 11:16:59;;;;;;;;;;;;;;;;;;5007251;28;19933;-75
2022/09/20 11:19:26;;;;;;;;;;;;;;;;;;5006765;28;20443;-76
2022/09/20 11:21:53;;;;;;;;;;;;;;;;;;5006967;28;19933;-75
2022/09/20 11:24:20;;;;;;;;;;;;;;;;;;5004239;28;19960;-76
2022/09/20 11:26:47;;;;;;;;;;;;;;;;;;5008183;28;20019;-76
2022/09/20 11:29:14;;;;;;;;;;;;;;;;;;5008658;28;19921;-76
2022/09/20 11:31:41;;;;;;;;;;;;;;;;;;5007470;28;19932;-77
2022/09/20 11:34:09;;;;;;;;;;;;;;;;;;5006781;28;20018;-77
2022/09/20 11:36:38;;;;;;;;;;;;;;;;;;5006165;28;19928;-76
2022/09/20 11:39:05;;;;;;;;;;;;;;;;;;5005538;28;19933;-74
2022/09/20 11:41:32;;;;;;;;;;;;;;;;;;5003277;28;19984;-76
2022/09/20 11:43:59;;;;;;;;;;;;;;;;;;5007411;28;19924;-77
2022/09/20 11:46:26;;;;;;;;;;;;;;;;;;5005879;28;19968;-77
2022/09/20 11:48:53;;;;;;;;;;;;;;;;;;5001148;28;19929;-77
2022/09/20 11:51:20;;;;;;;;;;;;;;;;;;5004480;28;19984;-76
2022/09/20 11:53:47;;;;;;;;;;;;;;;;;;5006390;28;19924;-76
2022/09/20 11:56:14;;;;;;;;;;;;;;;;;;5005668;28;19928;-75
2022/09/20 11:58:41;;;;;;;;;;;;;;;;;;5007672;28;19924;-76
2022/09/20 12:01:08;;;;;;;;;;;;;;;;;;5005707;28;20295;-75
2022/09/20 12:03:36;;;;;;;;;;;;;;;;;;5002710;28;19925;-76
2022/09/20 12:06:03;;;;;;;;;;;;;;;;;;5002202;28;19921;-76
2022/09/20 12:08:30;;;;;;;;;;;;;;;;;;5005922;28;19925;-77
2022/09/20 12:10:57;;;;;;;;;;;;;;;;;;5006757;28;19924;-75
2022/09/20 12:13:24;;;;;;;;;;;;;;;;;;5010782;28;19932;-75
2022/09/20 12:15:51;;;;;;;;;;;;;;;;;;5008695;28;20442;-71
2022/09/20 12:18:18;;;;;;;;;;;;;;;;;;5019721;28;19936;-71
2022/09/20 12:20:45;;;;;;;;;;;;;;;;;;5020122;28;19921;-71
2022/09/20 12:23:12;;;;;;;;;;;;;;;;;;5008377;28;19933;-72
2022/09/20 12:25:39;;;;;;;;;;;;;;;;;;5007520;28;19925;-71
2022/09/20 12:28:06;;;;;;;;;;;;;;;;;;5005888;28;19925;-70
2022/09/20 12:30:33;;;;;;;;;;;;;;;;;;5011359;28;20237;-71
2022/09/20 12:33:02;;;;;;;;;;;;;;;;;;5025658;28;19936;-71
2022/09/20 12:35:29;;;;;;;;;;;;;;;;;;5017743;28;19979;-72
2022/09/20 12:37:56;;;;;;;;;;;;;;;;;;5023000;28;19925;-70
2022/09/20 12:40:24;;;;;;;;;;;;;;;;;;5020430;28;19930;-70
2022/09/20 12:42:51;;;;;;;;;;;;;;;;;;5024094;28;19929;-71
2022/09/20 12:45:18;;;;;;;;;;;;;;;;;;5006881;28;19929;-70
2022/09/20 12:47:45;;;;;;;;;;;;;;;;;;5029731;28;19987;-71
2022/09/20 12:52:59;;;;;;;;;;;;;;;;;;5025161;28;19928;-71
2022/09/20 12:55:26;;;;;;;;;;;;;;;;;;5027788;28;19987;-70
2022/09/20 12:57:54;;;;;;;;;;;;;;;;;;5027812;28;19977;-71
2022/09/20 13:00:21;;;;;;;;;;;;;;;;;;5028718;28;20012;-72
2022/09/20 13:02:48;;;;;;;;;;;;;;;;;;5026439;28;19994;-71
2022/09/20 13:05:16;;;;;;;;;;;;;;;;;;5028515;28;19929;-69
2022/09/20 13:07:44;;;;;;;;;;;;;;;;;;5025526;28;19924;-69
2022/09/20 13:10:11;;;;;;;;;;;;;;;;;;5011774;28;19991;-72
2022/09/20 13:12:38;;;;;;;;;;;;;;;;;;5024342;28;19940;-69
2022/09/20 13:15:05;;;;;;;;;;;;;;;;;;5000027;28;19932;-69
2022/09/20 13:17:32;;;;;;;;;;;;;;;;;;5025175;28;19936;-69
2022/09/20 13:19:59;;;;;;;;;;;;;;;;;;5029076;28;19932;-68
2022/09/20 13:22:26;;;;;;;;;;;;;;;;;;5027461;28;19932;-69
2022/09/20 13:24:54;;;;;;;;;;;;;;;;;;5028526;28;20291;-71
2022/09/20 13:27:21;;;;;;;;;;;;;;;;;;5026102;28;19929;-69
2022/09/20 13:29:48;;;;;;;;;;;;;;;;;;5028746;28;19936;-69
2022/09/20 13:32:15;;;;;;;;;;;;;;;;;;5009955;28;19924;-69
2022/09/20 13:34:42;;;;;;;;;;;;;;;;;;5022716;28;19925;-72
2022/09/20 13:37:10;;;;;;;;;;;;;;;;;;5010484;28;20007;-70
2022/09/20 13:39:37;;;;;;;;;;;;;;;;;;5028301;28;19925;-70
2022/09/20 13:42:05;;;;;;;;;;;;;;;;;;5025072;28;20273;-69
2022/09/20 13:44:33;;;;;;;;;;;;;;;;;;5023446;28;19931;-69
2022/09/20 13:47:00;;;;;;;;;;;;;;;;;;5027048;28;20016;-69
2022/09/20 13:49:27;;;;;;;;;;;;;;;;;;5023424;28;19933;-69
2022/09/20 13:51:54;;;;;;;;;;;;;;;;;;5027812;28;20456;-69
2022/09/20 13:54:21;;;;;;;;;;;;;;;;;;5021250;28;19933;-68
2022/09/20 13:56:48;;;;;;;;;;;;;;;;;;5026938;28;19945;-68
2022/09/20 13:59:17;;;;;;;;;;;;;;;;;;5027078;28;19921;-70
2022/09/20 14:01:45;;;;;;;;;;;;;;;;;;5025021;28;20331;-69
2022/09/20 14:04:12;;;;;;;;;;;;;;;;;;5025782;28;20004;-71
2022/09/20 14:06:39;;;;;;;;;;;;;;;;;;5024259;28;20697;-69
2022/09/20 14:09:06;;;;;;;;;;;;;;;;;;5006779;28;19924;-69
2022/09/20 14:11:35;;;;;;;;;;;;;;;;;;5019087;28;19929;-70
2022/09/20 14:14:02;;;;;;;;;;;;;;;;;;5020459;28;20677;-69
2022/09/20 14:16:29;;;;;;;;;;;;;;;;;;5025866;28;19931;-71
2022/09/20 14:18:57;;;;;;;;;;;;;;;;;;5006714;28;19974;-69
2022/09/20 14:21:24;;;;;;;;;;;;;;;;;;5026357;28;19921;-70
2022/09/20 14:23:51;;;;;;;;;;;;;;;;;;5025945;28;19932;-70
2022/09/20 14:26:18;;;;;;;;;;;;;;;;;;5027641;28;19932;-69
2022/09/20 14:28:45;;;;;;;;;;;;;;;;;;5010461;28;19944;-69
2022/09/20 14:31:12;;;;;;;;;;;;;;;;;;5006988;28;19975;-73
2022/09/20 14:33:39;;;;;;;;;;;;;;;;;;5009254;28;20442;-69
2022/09/20 14:36:06;;;;;;;;;;;;;;;;;;5021683;28;19929;-71
2022/09/20 14:38:33;;;;;;;;;;;;;;;;;;5025407;28;20049;-69
2022/09/20 14:41:00;;;;;;;;;;;;;;;;;;5007977;28;19980;-69
2022/09/20 14:43:27;;;;;;;;;;;;;;;;;;5007605;28;19928;-69
2022/09/20 14:45:54;;;;;;;;;;;;;;;;;;5002497;28;19929;-69
2022/09/20 14:48:21;;;;;;;;;;;;;;;;;;5023195;28;20380;-70
2022/09/20 14:50:48;;;;;;;;;;;;;;;;;;5026927;28;19952;-69
2022/09/20 14:53:15;;;;;;;;;;;;;;;;;;5024094;28;19921;-70
2022/09/20 14:55:43;;;;;;;;;;;;;;;;;;5003218;28;19936;-69
2022/09/20 14:58:10;;;;;;;;;;;;;;;;;;5026547;28;20280;-69
2022/09/20 15:00:37;;;;;;;;;;;;;;;;;;5008494;28;20580;-69
2022/09/20 15:03:04;;;;;;;;;;;;;;;;;;5025884;28;19925;-69
2022/09/20 15:05:32;;;;;;;;;;;;;;;;;;5024498;28;19960;-70
2022/09/20 15:07:59;;;;;;;;;;;;;;;;;;5025488;28;20023;-69
2022/09/20 15:10:28;;;;;;;;;;;;;;;;;;5005558;28;19973;-70
2022/09/20 15:12:55;;;;;;;;;;;;;;;;;;5006314;28;19928;-70
2022/09/20 15:15:22;;;;;;;;;;;;;;;;;;5003594;28;19929;-71
2022/09/20 15:17:49;;;;;;;;;;;;;;;;;;5023706;28;20287;-69
2022/09/20 15:20:17;;;;;;;;;;;;;;;;;;5005639;28;19921;-69
2022/09/20 15:22:44;;;;;;;;;;;;;;;;;;5017830;28;20429;-69
2022/09/20 15:25:11;;;;;;;;;;;;;;;;;;5009680;28;19928;-72
2022/09/20 15:27:38;;;;;;;;;;;;;;;;;;5004322;28;20540;-69
2022/09/20 15:30:05;;;;;;;;;;;;;;;;;;5008975;28;19921;-68
2022/09/20 15:32:33;;;;;;;;;;;;;;;;;;5018873;28;20523;-69
2022/09/20 15:35:00;;;;;;;;;;;;;;;;;;5022351;28;19925;-71
2022/09/20 15:37:27;;;;;;;;;;;;;;;;;;5004923;28;19936;-68
2022/09/20 15:39:54;;;;;;;;;;;;;;;;;;5024730;28;19920;-70
2022/09/20 15:42:22;;;;;;;;;;;;;;;;;;5024645;28;19924;-70
2022/09/20 15:44:50;;;;;;;;;;;;;;;;;;5018472;28;19967;-73
2022/09/20 15:47:17;;;;;;;;;;;;;;;;;;5000017;28;19929;-72
2022/09/20 15:49:45;;;;;;;;;;;;;;;;;;5000214;28;19943;-75
2022/09/20 15:52:13;;;;;;;;;;;;;;;;;;5000477;28;19933;-76
2022/09/20 15:54:40;;;;;;;;;;;;;;;;;;5005852;28;20007;-74
2022/09/20 15:57:07;;;;;;;;;;;;;;;;;;5003871;28;19925;-74
2022/09/20 15:59:34;;;;;;;;;;;;;;;;;;5008802;28;20014;-74
2022/09/20 16:02:01;;;;;;;;;;;;;;;;;;4999175;28;19921;-74
2022/09/20 16:04:28;;;;;;;;;;;;;;;;;;5006651;28;19987;-75
2022/09/20 16:06:55;;;;;;;;;;;;;;;;;;5012756;28;19924;-72
2022/09/20 16:09:22;;;;;;;;;;;;;;;;;;5014504;28;19931;-75
2022/09/20 16:11:50;;;;;;;;;;;;;;;;;;5009979;28;20637;-75
2022/09/20 16:14:17;;;;;;;;;;;;;;;;;;5008935;28;19925;-76
2022/09/20 16:16:44;;;;;;;;;;;;;;;;;;5014573;28;19925;-75
2022/09/20 16:19:16;;;;;;;;;;;;;;;;;;5009965;28;19980;-72
2022/09/20 16:21:45;;;;;;;;;;;;;;;;;;5009669;28;19925;-75
2022/09/20 16:24:12;;;;;;;;;;;;;;;;;;5000672;28;19925;-77
2022/09/20 16:26:39;;;;;;;;;;;;;;;;;;4998896;28;19921;-74
2022/09/20 16:29:07;;;;;;;;;;;;;;;;;;5002534;28;19921;-78
2022/09/20 16:31:35;;;;;;;;;;;;;;;;;;5010437;28;19924;-77
2022/09/20 16:34:03;;;;;;;;;;;;;;;;;;5010127;28;20011;-75
2022/09/20 16:36:30;;;;;;;;;;;;;;;;;;5003586;28;19920;-71
2022/09/20 16:38:57;;;;;;;;;;;;;;;;;;5008558;28;19940;-75
2022/09/20 16:41:24;;;;;;;;;;;;;;;;;;5005692;28;19929;-75
2022/09/20 16:43:51;;;;;;;;;;;;;;;;;;5000699;28;19971;-73
2022/09/20 16:46:19;;;;;;;;;;;;;;;;;;5005508;28;20241;-74
2022/09/20 16:48:48;;;;;;;;;;;;;;;;;;5005728;28;20051;-74
2022/09/20 16:51:15;;;;;;;;;;;;;;;;;;4997335;28;19929;-76
2022/09/20 16:53:44;;;;;;;;;;;;;;;;;;4999215;28;19925;-75
2022/09/20 16:56:11;;;;;;;;;;;;;;;;;;5002141;28;19987;-72
2022/09/20 16:58:38;;;;;;;;;;;;;;;;;;5003029;28;19921;-75